Time;durP1;ratioP1;P1;durP2;ratioP2;P2;SDS_P1;SDS_P2;PMS_P1;PMS_P2;Temp;Humidity;BMP_temperature;BMP_pressure;BME280_temperature;BME280_humidity;BME280_pressure;Samples;Min_cycle;Max_cycle;Signal;HPM_P1;HPM_P2
2023/05/23 00:00:01;;;;;;;7.72;7.05;;;24.20;90.30;;;;;;6012035;29;87970;-70
2023/05/23 00:03:03;;;;;;;8.05;7.35;;;24.20;90.20;;;;;;6008530;29;89147;-70
2023/05/23 00:06:07;;;;;;;8.20;7.50;;;24.20;90.20;;;;;;6011779;29;90054;-70
2023/05/23 00:09:09;;;;;;;7.90;7.15;;;24.20;90.20;;;;;;6001416;29;87989;-70
2023/05/23 00:12:11;;;;;;;8.07;7.28;;;24.20;90.20;;;;;;6000062;29;89497;-70
2023/05/23 00:15:14;;;;;;;7.88;7.00;;;24.20;90.10;;;;;;6000917;29;88050;-70
2023/05/23 00:18:16;;;;;;;7.82;7.10;;;24.20;90.10;;;;;;6005460;29;91033;-70
2023/05/23 00:21:19;;;;;;;8.25;7.55;;;24.20;90.00;;;;;;5997570;29;89114;-70
2023/05/23 00:24:21;;;;;;;7.82;7.00;;;24.10;90.00;;;;;;6010313;29;87957;-69
2023/05/23 00:27:23;;;;;;;7.88;7.18;;;24.10;90.00;;;;;;6006343;29;88580;-70
2023/05/23 00:30:26;;;;;;;8.65;7.72;;;24.20;90.00;;;;;;6004407;29;89089;-70
2023/05/23 00:33:28;;;;;;;8.20;7.50;;;24.10;90.00;;;;;;6022428;29;89228;-70
2023/05/23 00:36:35;;;;;;;8.10;7.30;;;24.20;90.00;;;;;;6008948;29;90036;-70
2023/05/23 00:39:37;;;;;;;7.93;7.22;;;24.10;89.90;;;;;;6000339;29;89539;-70
2023/05/23 00:42:39;;;;;;;7.60;6.97;;;24.20;90.00;;;;;;6002582;29;89098;-70
2023/05/23 00:45:42;;;;;;;8.00;7.30;;;24.10;89.90;;;;;;6019810;29;89039;-69
2023/05/23 00:48:44;;;;;;;7.85;7.15;;;24.10;89.80;;;;;;6013018;29;89346;-69
2023/05/23 00:51:48;;;;;;;8.23;7.43;;;24.10;89.80;;;;;;6023848;29;89094;-70
2023/05/23 00:54:50;;;;;;;8.05;7.35;;;24.10;89.80;;;;;;6013175;29;89241;-69
2023/05/23 00:57:54;;;;;;;8.40;7.60;;;24.10;89.60;;;;;;6016485;29;88665;-69
2023/05/23 01:00:58;;;;;;;8.27;7.47;;;24.10;89.70;;;;;;6003441;29;88956;-69
2023/05/23 01:04:01;;;;;;;7.47;6.78;;;24.10;89.70;;;;;;6002437;29;89035;-70
2023/05/23 01:07:03;;;;;;;8.00;7.30;;;24.10;89.60;;;;;;6009498;29;90274;-69
2023/05/23 01:10:06;;;;;;;8.00;7.30;;;24.00;89.40;;;;;;6009718;29;89066;-70
2023/05/23 01:13:17;;;;;;;8.48;7.68;;;24.10;89.40;;;;;;6014100;29;89092;-70
2023/05/23 01:16:34;;;;;;;7.68;6.97;;;24.10;89.40;;;;;;6015583;29;89098;-69
2023/05/23 01:20:04;;;;;;;7.22;6.63;;;24.10;89.40;;;;;;6004319;29;89124;-70
2023/05/23 01:23:51;;;;;;;8.20;7.40;;;24.10;89.30;;;;;;6009244;29;89303;-70
2023/05/23 01:27:07;;;;;;;8.10;7.28;;;24.10;89.20;;;;;;5976811;29;89128;-70
2023/05/23 01:30:13;;;;;;;7.43;6.72;;;24.00;89.10;;;;;;6009469;29;88724;-69
2023/05/23 01:33:17;;;;;;;8.60;7.68;;;24.10;89.20;;;;;;6017207;29;89167;-69
2023/05/23 01:36:19;;;;;;;7.97;7.28;;;24.10;89.20;;;;;;6025916;29;89598;-70
2023/05/23 01:39:21;;;;;;;7.72;7.03;;;24.00;89.10;;;;;;6014138;29;89871;-69
2023/05/23 01:42:23;;;;;;;8.30;7.60;;;24.00;88.90;;;;;;6003338;29;89166;-70
2023/05/23 01:45:29;;;;;;;8.45;7.43;;;24.00;88.90;;;;;;6014789;29;89112;-70
2023/05/23 01:48:31;;;;;;;8.00;7.30;;;24.00;88.90;;;;;;6005371;29;88203;-70
2023/05/23 01:51:34;;;;;;;7.25;6.65;;;24.00;88.90;;;;;;6001872;29;89096;-70
2023/05/23 01:54:37;;;;;;;7.13;6.55;;;24.00;88.80;;;;;;6007342;29;90656;-70
2023/05/23 01:57:40;;;;;;;8.00;7.20;;;24.00;88.80;;;;;;6022110;29;89119;-71
2023/05/23 02:00:43;;;;;;;7.75;7.05;;;24.00;88.80;;;;;;6014139;29;88456;-70
2023/05/23 02:03:45;;;;;;;8.13;7.43;;;24.00;88.80;;;;;;6013388;29;87983;-70
2023/05/23 02:06:47;;;;;;;8.02;7.32;;;23.90;88.80;;;;;;6014140;29;89110;-71
2023/05/23 02:09:49;;;;;;;7.95;7.25;;;24.00;88.80;;;;;;6010873;29;90117;-70
2023/05/23 02:12:51;;;;;;;8.27;7.40;;;24.00;88.70;;;;;;6002528;29;89422;-71
2023/05/23 02:15:54;;;;;;;7.88;7.28;;;24.00;88.60;;;;;;6012768;29;89129;-70
2023/05/23 02:18:57;;;;;;;7.68;7.07;;;24.00;88.50;;;;;;6005425;29;89088;-71
2023/05/23 02:21:59;;;;;;;7.65;7.05;;;23.90;88.40;;;;;;6000165;29;89320;-70
2023/05/23 02:25:01;;;;;;;8.20;7.50;;;23.90;88.40;;;;;;6002482;29;89327;-71
2023/05/23 02:28:03;;;;;;;7.90;7.20;;;23.90;88.40;;;;;;6001144;29;89372;-71
2023/05/23 02:31:06;;;;;;;8.10;7.30;;;23.90;88.40;;;;;;6020658;29;88672;-71
2023/05/23 02:34:08;;;;;;;8.27;7.57;;;23.90;88.20;;;;;;6007015;29;88319;-71
2023/05/23 02:37:10;;;;;;;8.00;7.30;;;23.90;88.20;;;;;;6008582;29;88279;-71
2023/05/23 02:40:13;;;;;;;7.60;6.97;;;23.90;88.30;;;;;;6014591;29;90127;-70
2023/05/23 02:43:15;;;;;;;8.07;7.30;;;23.90;88.30;;;;;;6012609;29;89552;-71
2023/05/23 02:46:18;;;;;;;8.45;7.60;;;23.90;88.10;;;;;;6006598;29;89140;-71
2023/05/23 02:49:20;;;;;;;8.20;7.50;;;23.90;88.00;;;;;;6005759;29;89146;-71
2023/05/23 02:52:22;;;;;;;7.93;7.13;;;23.90;87.90;;;;;;6005054;29;89110;-70
2023/05/23 02:55:24;;;;;;;7.85;7.15;;;23.90;87.80;;;;;;6008225;29;88010;-70
2023/05/23 02:58:26;;;;;;;8.07;7.30;;;23.90;87.90;;;;;;6012466;29;89090;-71
2023/05/23 03:01:30;;;;;;;8.30;7.50;;;23.90;87.90;;;;;;6009250;29;88375;-70
2023/05/23 03:04:32;;;;;;;8.00;7.30;;;23.90;87.80;;;;;;6013649;29;89516;-71
2023/05/23 03:07:35;;;;;;;8.02;7.32;;;23.90;87.80;;;;;;6007080;29;89570;-70
2023/05/23 03:10:37;;;;;;;8.00;7.20;;;23.90;87.80;;;;;;6015515;29;90488;-70
2023/05/23 03:13:39;;;;;;;8.27;7.57;;;23.80;87.90;;;;;;6015789;29;89149;-70
2023/05/23 03:16:42;;;;;;;8.32;7.63;;;23.90;87.90;;;;;;6015719;29;89330;-70
2023/05/23 03:19:44;;;;;;;8.30;7.55;;;23.90;87.80;;;;;;6015928;29;88972;-70
2023/05/23 03:22:47;;;;;;;7.63;6.93;;;23.90;87.70;;;;;;6015125;29;89094;-70
2023/05/23 03:25:49;;;;;;;8.82;8.02;;;23.90;87.70;;;;;;6004996;29;89490;-70
2023/05/23 03:28:51;;;;;;;8.07;7.35;;;23.90;87.70;;;;;;6002020;29;89158;-70
2023/05/23 03:31:54;;;;;;;8.02;7.32;;;23.80;87.70;;;;;;6009279;29;88396;-70
2023/05/23 03:34:56;;;;;;;8.38;7.57;;;23.90;87.70;;;;;;6013521;29;89507;-70
2023/05/23 03:37:58;;;;;;;8.18;7.47;;;23.80;87.60;;;;;;6003252;29;89647;-70
2023/05/23 03:41:00;;;;;;;8.07;7.38;;;23.80;87.60;;;;;;6005532;29;88947;-70
2023/05/23 03:44:02;;;;;;;8.07;7.38;;;23.80;87.60;;;;;;6007970;29;88767;-70
2023/05/23 03:47:06;;;;;;;8.70;7.80;;;23.80;87.70;;;;;;6019008;29;87980;-70
2023/05/23 03:50:09;;;;;;;8.52;7.80;;;23.80;87.60;;;;;;6010308;29;89027;-70
2023/05/23 03:53:11;;;;;;;9.05;7.70;;;23.80;87.60;;;;;;6011876;29;89131;-70
2023/05/23 03:56:13;;;;;;;8.23;7.50;;;23.80;87.40;;;;;;6007513;29;89612;-70
2023/05/23 03:59:15;;;;;;;8.50;7.65;;;23.80;87.40;;;;;;6008302;29;89152;-70
2023/05/23 04:02:18;;;;;;;8.60;7.90;;;23.80;87.30;;;;;;6008735;29;88190;-70
2023/05/23 04:05:20;;;;;;;8.55;7.80;;;23.80;87.40;;;;;;6004419;29;89191;-70
2023/05/23 04:08:23;;;;;;;8.70;7.93;;;23.80;87.40;;;;;;6014794;29;89237;-70
2023/05/23 04:11:25;;;;;;;8.45;7.68;;;23.80;88.10;;;;;;6007799;29;90445;-70
2023/05/23 04:14:28;;;;;;;8.13;7.35;;;23.80;87.50;;;;;;6004035;29;87978;-70
2023/05/23 04:17:31;;;;;;;8.23;7.53;;;23.70;87.40;;;;;;6008311;29;89284;-70
2023/05/23 04:20:33;;;;;;;8.25;7.55;;;23.80;87.50;;;;;;6000372;29;89478;-71
2023/05/23 04:23:35;;;;;;;8.88;8.10;;;23.80;87.60;;;;;;6014057;29;89177;-70
2023/05/23 04:26:38;;;;;;;8.57;7.78;;;23.80;87.40;;;;;;6005594;29;89190;-71
2023/05/23 04:29:40;;;;;;;8.48;7.78;;;23.70;87.40;;;;;;6004639;29;89535;-71
2023/05/23 04:32:43;;;;;;;8.27;7.57;;;23.80;87.40;;;;;;6011144;29;88666;-70
2023/05/23 04:35:45;;;;;;;9.73;8.10;;;23.80;87.70;;;;;;6003368;29;89077;-69
2023/05/23 04:38:47;;;;;;;8.93;8.23;;;23.70;88.10;;;;;;6008002;29;89019;-69
2023/05/23 04:41:50;;;;;;;10.35;8.38;;;23.70;88.60;;;;;;6010022;29;90406;-70
2023/05/23 04:44:52;;;;;;;9.05;8.25;;;23.80;90.00;;;;;;5996319;29;89138;-71
2023/05/23 04:47:55;;;;;;;9.40;8.52;;;23.80;90.40;;;;;;6013933;29;89075;-71
2023/05/23 04:51:01;;;;;;;9.10;8.20;;;23.80;90.40;;;;;;6011537;29;88293;-71
2023/05/23 04:54:02;;;;;;;9.93;8.10;;;23.80;90.50;;;;;;6016981;29;89651;-71
2023/05/23 04:57:05;;;;;;;8.05;7.35;;;23.80;90.30;;;;;;6023725;29;89118;-71
2023/05/23 05:00:09;;;;;;;8.73;7.85;;;23.80;90.50;;;;;;5957194;29;89402;-71
2023/05/23 05:03:12;;;;;;;8.98;8.10;;;23.80;90.50;;;;;;6015493;29;88400;-70
2023/05/23 05:06:15;;;;;;;8.80;7.90;;;23.80;90.50;;;;;;6007554;29;89094;-70
2023/05/23 05:09:17;;;;;;;8.20;7.50;;;23.80;90.40;;;;;;6017902;29;89168;-71
2023/05/23 05:12:19;;;;;;;8.75;7.93;;;23.80;90.60;;;;;;6007379;29;89886;-70
2023/05/23 05:15:22;;;;;;;8.32;7.60;;;23.80;90.60;;;;;;6022983;29;89101;-71
2023/05/23 05:18:26;;;;;;;8.60;7.82;;;23.80;90.70;;;;;;6013225;29;88574;-71
2023/05/23 05:21:28;;;;;;;8.50;7.70;;;23.80;90.50;;;;;;6017164;29;89339;-72
2023/05/23 05:24:31;;;;;;;11.52;9.07;;;23.80;90.50;;;;;;6016045;29;89123;-68
2023/05/23 05:27:33;;;;;;;10.52;8.98;;;23.90;90.70;;;;;;6020037;29;89215;-70
2023/05/23 05:30:36;;;;;;;11.60;8.82;;;23.90;94.40;;;;;;5999790;29;89107;-68
2023/05/23 05:33:40;;;;;;;12.23;9.43;;;23.90;95.80;;;;;;6025079;29;88555;-71
2023/05/23 05:36:46;;;;;;;12.38;9.50;;;23.90;96.90;;;;;;6006177;29;89851;-71
2023/05/23 05:39:48;;;;;;;18.08;11.45;;;23.90;94.50;;;;;;5993563;29;89164;-70
2023/05/23 05:42:50;;;;;;;21.60;11.70;;;23.90;93.30;;;;;;6017096;29;90103;-70
2023/05/23 05:45:52;;;;;;;19.70;10.75;;;23.90;93.20;;;;;;6015512;29;89319;-71
2023/05/23 05:48:56;;;;;;;14.73;10.40;;;23.90;93.10;;;;;;6015495;29;90933;-71
2023/05/23 05:51:58;;;;;;;16.45;10.30;;;23.90;93.60;;;;;;6015535;29;89091;-71
2023/05/23 05:55:00;;;;;;;14.85;10.23;;;23.90;93.10;;;;;;6009291;29;89381;-70
2023/05/23 05:58:02;;;;;;;14.40;9.98;;;23.80;92.80;;;;;;6015922;29;87878;-70
2023/05/23 06:01:04;;;;;;;13.40;9.30;;;23.90;93.00;;;;;;6004258;29;89445;-70
2023/05/23 06:04:07;;;;;;;13.93;9.98;;;23.80;92.80;;;;;;6007908;29;87319;-71
2023/05/23 06:07:09;;;;;;;13.90;9.55;;;23.80;92.60;;;;;;6006906;29;89130;-69
2023/05/23 06:10:12;;;;;;;13.85;9.55;;;23.80;92.50;;;;;;6019076;29;89113;-71
2023/05/23 06:13:14;;;;;;;19.42;11.20;;;23.80;92.60;;;;;;5994099;29;91163;-70
2023/05/23 06:16:16;;;;;;;19.98;11.70;;;23.80;93.00;;;;;;6006151;29;89142;-69
2023/05/23 06:19:19;;;;;;;22.13;12.90;;;23.80;93.50;;;;;;6008635;29;89028;-70
2023/05/23 06:22:21;;;;;;;21.98;13.02;;;23.80;94.20;;;;;;6010329;29;89089;-69
2023/05/23 06:25:23;;;;;;;21.33;11.93;;;23.80;95.10;;;;;;6012097;29;89141;-69
2023/05/23 06:28:26;;;;;;;17.20;11.05;;;23.80;95.10;;;;;;6011769;29;89113;-69
2023/05/23 06:31:28;;;;;;;15.90;10.45;;;23.80;94.90;;;;;;6016164;29;89103;-69
2023/05/23 06:34:31;;;;;;;14.18;10.50;;;23.80;94.80;;;;;;6013078;29;88411;-70
2023/05/23 06:37:33;;;;;;;15.23;10.63;;;23.80;94.70;;;;;;6010071;29;89148;-69
2023/05/23 06:40:35;;;;;;;11.77;9.43;;;23.80;94.50;;;;;;6006801;29;89451;-69
2023/05/23 06:43:37;;;;;;;13.32;9.68;;;23.80;94.20;;;;;;6014624;29;89985;-70
2023/05/23 06:46:39;;;;;;;12.90;9.55;;;23.80;93.90;;;;;;6005757;29;89110;-69
2023/05/23 06:49:43;;;;;;;12.48;9.10;;;23.90;93.80;;;;;;6012285;29;87901;-69
2023/05/23 06:52:45;;;;;;;13.48;9.48;;;23.90;93.80;;;;;;6009438;29;89362;-69
2023/05/23 06:55:47;;;;;;;11.75;9.20;;;23.90;93.70;;;;;;6006624;29;88982;-70
2023/05/23 06:58:49;;;;;;;13.02;9.48;;;23.90;93.60;;;;;;6008602;29;89084;-69
2023/05/23 07:01:51;;;;;;;12.55;9.13;;;23.90;93.60;;;;;;6013802;29;89113;-69
2023/05/23 07:04:54;;;;;;;12.13;9.18;;;23.90;93.60;;;;;;6013675;29;88432;-69
2023/05/23 07:07:56;;;;;;;11.13;9.05;;;23.90;93.60;;;;;;6014090;29;88071;-69
2023/05/23 07:10:58;;;;;;;10.00;8.95;;;23.90;93.50;;;;;;6008855;29;89104;-69
2023/05/23 07:14:00;;;;;;;11.18;9.00;;;24.00;93.50;;;;;;6011904;29;90374;-68
2023/05/23 07:17:02;;;;;;;10.48;8.63;;;24.00;93.40;;;;;;5991802;29;87958;-70
2023/05/23 07:20:07;;;;;;;10.05;8.20;;;24.00;93.30;;;;;;6013743;29;89209;-71
2023/05/23 07:23:09;;;;;;;9.70;8.10;;;24.00;93.30;;;;;;6011076;29;89177;-70
2023/05/23 07:26:11;;;;;;;12.50;9.25;;;24.00;93.40;;;;;;6010373;28;89252;-69
2023/05/23 07:29:13;;;;;;;9.77;8.57;;;24.00;94.80;;;;;;6006175;29;89003;-69
2023/05/23 07:32:15;;;;;;;10.07;8.77;;;24.00;94.40;;;;;;6021042;29;89110;-69
2023/05/23 07:35:22;;;;;;;9.68;8.48;;;24.00;94.00;;;;;;6004686;29;88235;-71
2023/05/23 07:38:26;;;;;;;10.10;8.30;;;24.10;94.00;;;;;;6025348;29;89220;-71
2023/05/23 07:41:28;;;;;;;10.30;8.32;;;24.00;93.80;;;;;;6013282;29;89058;-71
2023/05/23 07:44:30;;;;;;;9.20;8.30;;;24.00;93.60;;;;;;6017102;29;90110;-71
2023/05/23 07:47:32;;;;;;;8.95;7.90;;;24.10;93.70;;;;;;6012058;29;89033;-71
2023/05/23 07:50:35;;;;;;;9.48;8.10;;;24.10;93.60;;;;;;6010899;29;89204;-71
2023/05/23 07:53:38;;;;;;;10.18;8.10;;;24.00;93.60;;;;;;6010237;29;88320;-71
2023/05/23 07:56:40;;;;;;;9.82;8.52;;;24.00;93.70;;;;;;6005900;29;87810;-71
2023/05/23 07:59:42;;;;;;;14.65;8.88;;;24.00;93.90;;;;;;6011877;29;89389;-71
2023/05/23 08:02:44;;;;;;;10.20;8.43;;;24.10;93.90;;;;;;5992313;29;89495;-71
2023/05/23 08:05:47;;;;;;;9.90;8.68;;;24.10;94.00;;;;;;6012906;29;88904;-71
2023/05/23 08:08:50;;;;;;;9.40;8.40;;;24.10;93.80;;;;;;6001645;29;90241;-71
2023/05/23 08:11:53;;;;;;;9.15;8.25;;;24.00;93.70;;;;;;6015003;29;89440;-71
2023/05/23 08:14:55;;;;;;;10.13;8.02;;;24.00;93.60;;;;;;6012565;29;90054;-71
2023/05/23 08:17:57;;;;;;;9.75;8.85;;;24.10;93.50;;;;;;6009692;29;89298;-71
2023/05/23 08:21:01;;;;;;;9.43;8.50;;;24.00;93.40;;;;;;6002033;29;89009;-71
2023/05/23 08:24:04;;;;;;;9.20;8.25;;;24.10;93.40;;;;;;6003472;29;88953;-71
2023/05/23 08:27:06;;;;;;;8.85;7.97;;;24.10;93.40;;;;;;6009456;29;88959;-71
2023/05/23 08:30:10;;;;;;;8.70;7.90;;;24.10;93.40;;;;;;6007366;29;89106;-70
2023/05/23 08:33:12;;;;;;;9.02;8.10;;;24.10;93.40;;;;;;6019070;29;89056;-71
2023/05/23 08:36:15;;;;;;;9.57;8.57;;;24.10;93.50;;;;;;6011956;29;89438;-71
2023/05/23 08:39:17;;;;;;;9.23;8.40;;;24.10;93.40;;;;;;6007792;29;89073;-71
2023/05/23 08:42:19;;;;;;;9.43;8.48;;;24.10;93.40;;;;;;6013698;29;88179;-71
2023/05/23 08:45:22;;;;;;;9.18;8.32;;;24.00;93.40;;;;;;6017728;29;90121;-70
2023/05/23 08:48:28;;;;;;;9.45;8.55;;;24.00;93.30;;;;;;6009128;29;89126;-70
2023/05/23 08:51:33;;;;;;;8.90;8.10;;;24.00;93.30;;;;;;6016611;29;89104;-71
2023/05/23 08:54:35;;;;;;;9.02;8.13;;;24.10;93.30;;;;;;6018943;29;89046;-70
2023/05/23 08:57:42;;;;;;;8.48;7.68;;;24.10;93.30;;;;;;6004625;29;88033;-71
2023/05/23 09:00:44;;;;;;;8.85;8.05;;;24.00;93.20;;;;;;6014963;29;89158;-71
2023/05/23 09:03:49;;;;;;;9.75;8.80;;;24.10;93.30;;;;;;6016730;29;88952;-71
2023/05/23 09:06:53;;;;;;;9.38;8.45;;;24.10;93.30;;;;;;6013373;29;88412;-70
2023/05/23 09:09:55;;;;;;;9.70;8.80;;;24.00;93.30;;;;;;5998907;29;89101;-70
2023/05/23 09:12:58;;;;;;;10.27;8.65;;;24.00;93.40;;;;;;6011851;29;88038;-72
2023/05/23 09:16:03;;;;;;;9.85;8.85;;;24.00;95.90;;;;;;6011238;29;90127;-72
2023/05/23 09:19:12;;;;;;;10.30;9.23;;;24.10;97.60;;;;;;6012951;29;89104;-72
2023/05/23 09:22:16;;;;;;;9.88;8.90;;;24.10;97.40;;;;;;6011033;29;89104;-72
2023/05/23 09:25:18;;;;;;;10.43;9.30;;;24.10;97.10;;;;;;6005817;29;87993;-72
2023/05/23 09:28:20;;;;;;;12.25;9.45;;;24.20;97.00;;;;;;6011418;29;88141;-66
2023/05/23 09:31:27;;;;;;;12.98;9.93;;;24.10;97.30;;;;;;6010989;29;89114;-67
2023/05/23 09:34:29;;;;;;;11.68;10.13;;;24.20;99.90;;;;;;6013984;29;88344;-70
2023/05/23 09:37:33;;;;;;;12.02;10.55;;;24.20;99.90;;;;;;5999268;29;88483;-67
2023/05/23 09:40:35;;;;;;;11.70;10.50;;;24.20;99.90;;;;;;6014441;29;89347;-67
2023/05/23 09:43:38;;;;;;;11.88;10.63;;;24.20;99.90;;;;;;6002216;29;89192;-67
2023/05/23 09:46:40;;;;;;;11.38;10.15;;;24.20;99.90;;;;;;6011948;29;90425;-67
2023/05/23 09:49:44;;;;;;;11.48;10.35;;;24.20;99.90;;;;;;6005546;29;89090;-66
2023/05/23 09:52:47;;;;;;;11.23;10.05;;;24.20;99.90;;;;;;6015876;29;89064;-66
2023/05/23 09:55:50;;;;;;;11.13;10.13;;;24.20;99.90;;;;;;6014864;29;89039;-66
2023/05/23 09:58:54;;;;;;;11.40;10.25;;;24.20;99.40;;;;;;6014251;29;88273;-67
2023/05/23 10:01:57;;;;;;;11.55;10.10;;;24.20;99.90;;;;;;6008804;29;89353;-67
2023/05/23 10:05:00;;;;;;;10.65;9.65;;;24.20;99.30;;;;;;6005547;29;89045;-67
2023/05/23 10:08:07;;;;;;;10.30;9.30;;;24.20;98.90;;;;;;6001396;29;88367;-65
2023/05/23 10:11:49;;;;;;;11.15;10.00;;;24.30;98.50;;;;;;6011545;29;89139;-67
2023/05/23 10:14:55;;;;;;;10.77;9.77;;;24.20;98.20;;;;;;5997523;29;89000;-67
2023/05/23 10:18:09;;;;;;;10.23;9.23;;;24.20;98.00;;;;;;6010443;29;90111;-67
2023/05/23 10:21:15;;;;;;;11.18;10.07;;;24.20;97.80;;;;;;6012334;29;89088;-67
2023/05/23 10:24:19;;;;;;;10.77;9.77;;;24.20;97.50;;;;;;6011079;29;89080;-67
2023/05/23 10:27:22;;;;;;;11.10;9.95;;;24.30;97.50;;;;;;6004123;29;89268;-67
2023/05/23 10:30:24;;;;;;;11.35;10.25;;;24.30;97.30;;;;;;5994970;29;89523;-67
2023/05/23 10:33:27;;;;;;;10.88;9.77;;;24.20;97.20;;;;;;6005951;29;89426;-67
2023/05/23 10:36:37;;;;;;;10.18;9.18;;;24.20;97.20;;;;;;6011538;29;88748;-67
2023/05/23 10:39:51;;;;;;;11.70;9.88;;;24.20;97.20;;;;;;6015952;29;88349;-67
2023/05/23 10:42:57;;;;;;;10.95;9.95;;;24.20;97.00;;;;;;6008116;29;89237;-67
2023/05/23 10:45:59;;;;;;;10.38;9.48;;;24.30;96.60;;;;;;6006541;29;88326;-67
2023/05/23 10:49:02;;;;;;;10.65;9.68;;;24.20;96.30;;;;;;6011954;29;90324;-67
2023/05/23 10:52:06;;;;;;;10.88;9.77;;;24.30;96.20;;;;;;6009047;29;88745;-67
2023/05/23 10:55:16;;;;;;;10.60;9.63;;;24.20;96.00;;;;;;5996068;29;87940;-67
2023/05/23 10:58:21;;;;;;;11.07;10.07;;;24.20;95.90;;;;;;6000772;29;89112;-67
2023/05/23 11:01:24;;;;;;;11.32;10.27;;;24.20;95.90;;;;;;6002609;29;89180;-67
2023/05/23 11:04:27;;;;;;;10.98;9.98;;;24.20;96.00;;;;;;6003448;29;89080;-67
2023/05/23 11:07:30;;;;;;;10.65;9.75;;;24.20;96.10;;;;;;5994180;29;87994;-67
2023/05/23 11:10:51;;;;;;;11.23;10.23;;;24.20;96.00;;;;;;6008290;29;88336;-68
2023/05/23 11:13:59;;;;;;;10.90;9.82;;;24.30;95.90;;;;;;5991763;29;89366;-68
2023/05/23 11:17:14;;;;;;;10.60;9.60;;;24.20;95.70;;;;;;6004872;29;88014;-67
2023/05/23 11:20:22;;;;;;;10.52;9.63;;;24.20;95.60;;;;;;5991947;29;89984;-68
2023/05/23 11:23:39;;;;;;;10.43;9.52;;;24.20;95.40;;;;;;6008957;29;89378;-67
2023/05/23 11:26:53;;;;;;;10.75;9.75;;;24.30;95.90;;;;;;6002561;29;88293;-67
2023/05/23 11:30:03;;;;;;;10.32;9.38;;;24.20;95.30;;;;;;5996650;29;88072;-67
2023/05/23 11:33:12;;;;;;;10.75;9.73;;;24.20;95.20;;;;;;6011203;29;89148;-67
2023/05/23 11:36:14;;;;;;;10.82;9.75;;;24.20;95.20;;;;;;6005459;29;89331;-68
2023/05/23 11:39:18;;;;;;;11.43;10.32;;;24.20;95.30;;;;;;6004317;29;88996;-66
2023/05/23 11:42:22;;;;;;;11.63;10.52;;;24.20;95.50;;;;;;6002526;29;88961;-67
2023/05/23 11:45:25;;;;;;;12.43;11.15;;;24.20;96.00;;;;;;6002614;29;89111;-67
2023/05/23 11:48:27;;;;;;;11.48;10.27;;;24.20;96.30;;;;;;5998727;29;89161;-67
2023/05/23 11:51:30;;;;;;;10.57;9.10;;;24.20;96.70;;;;;;5994010;29;90033;-67
2023/05/23 11:54:33;;;;;;;11.13;9.00;;;24.30;97.40;;;;;;5991858;29;90411;-67
2023/05/23 11:57:38;;;;;;;10.02;8.80;;;24.30;97.90;;;;;;6004158;29;88019;-67
2023/05/23 12:00:44;;;;;;;10.52;8.15;;;24.20;98.30;;;;;;6003382;29;89276;-67
2023/05/23 12:03:47;;;;;;;9.20;8.32;;;24.20;98.50;;;;;;6011172;29;89367;-67
2023/05/23 12:06:51;;;;;;;11.35;8.80;;;24.20;98.60;;;;;;6014140;29;89152;-67
2023/05/23 12:09:56;;;;;;;9.80;8.80;;;24.20;98.60;;;;;;6020271;29;89220;-67
2023/05/23 12:12:59;;;;;;;9.10;8.20;;;24.20;98.70;;;;;;6015060;29;88490;-67
2023/05/23 12:16:03;;;;;;;12.10;7.47;;;24.10;98.00;;;;;;6013088;29;89065;-67
2023/05/23 12:19:06;;;;;;;8.73;7.35;;;24.20;96.90;;;;;;6014240;29;88000;-67
2023/05/23 12:22:08;;;;;;;7.75;6.93;;;24.20;96.20;;;;;;5999967;29;92172;-67
2023/05/23 12:25:10;;;;;;;7.97;6.95;;;24.20;96.30;;;;;;6015772;29;89194;-67
2023/05/23 12:28:14;;;;;;;8.18;7.28;;;24.20;96.30;;;;;;6016099;29;89202;-67
2023/05/23 12:31:18;;;;;;;9.38;7.28;;;24.10;96.60;;;;;;6008151;29;89343;-68
2023/05/23 12:34:21;;;;;;;9.18;7.50;;;24.20;96.90;;;;;;6012453;29;89303;-68
2023/05/23 12:37:24;;;;;;;9.85;8.10;;;24.10;98.40;;;;;;6010052;29;89238;-68
2023/05/23 12:40:26;;;;;;;7.78;6.97;;;24.10;98.30;;;;;;6006629;29;89348;-68
2023/05/23 12:43:30;;;;;;;8.63;7.18;;;24.10;98.20;;;;;;6007352;29;89007;-67
2023/05/23 12:46:32;;;;;;;10.75;7.43;;;24.10;98.20;;;;;;6007994;29;89103;-66
2023/05/23 12:49:34;;;;;;;7.80;7.10;;;24.10;98.80;;;;;;6016747;29;89088;-67
2023/05/23 12:52:36;;;;;;;7.68;6.97;;;24.10;98.90;;;;;;6012014;29;89988;-67
2023/05/23 12:55:39;;;;;;;8.30;7.03;;;24.10;98.80;;;;;;6023622;29;89757;-65
2023/05/23 12:58:43;;;;;;;7.72;7.00;;;24.10;98.60;;;;;;6010370;29;89486;-65
2023/05/23 13:01:46;;;;;;;8.35;7.57;;;24.10;99.00;;;;;;6009002;29;89165;-64
2023/05/23 13:04:48;;;;;;;8.73;7.93;;;24.20;99.40;;;;;;6015969;29;89370;-65
2023/05/23 13:07:50;;;;;;;8.70;7.90;;;24.10;99.10;;;;;;6015913;29;88000;-65
2023/05/23 13:10:53;;;;;;;8.55;7.75;;;24.10;98.90;;;;;;6006086;29;89096;-65
2023/05/23 13:13:56;;;;;;;8.05;7.35;;;24.20;98.90;;;;;;6014616;29;88727;-65
2023/05/23 13:16:58;;;;;;;9.18;8.27;;;24.10;98.80;;;;;;6015976;29;89109;-65
2023/05/23 13:20:03;;;;;;;8.40;7.60;;;24.10;98.90;;;;;;6007911;29;89097;-65
2023/05/23 13:23:06;;;;;;;8.98;8.18;;;24.10;99.00;;;;;;6015164;29;90054;-65
2023/05/23 13:26:08;;;;;;;8.25;7.45;;;24.10;98.90;;;;;;6023847;29;89116;-66
2023/05/23 13:29:12;;;;;;;8.13;7.43;;;24.10;98.90;;;;;;6021755;29;89056;-65
2023/05/23 13:32:14;;;;;;;8.32;7.60;;;24.10;98.80;;;;;;6023480;29;90095;-66
2023/05/23 13:35:16;;;;;;;8.75;7.95;;;24.10;98.70;;;;;;6013878;29;89228;-66
2023/05/23 13:38:19;;;;;;;9.00;7.90;;;24.10;98.90;;;;;;6014904;29;88760;-66
2023/05/23 13:41:22;;;;;;;8.57;7.75;;;24.10;99.00;;;;;;6009754;29;89077;-65
2023/05/23 13:44:25;;;;;;;8.48;7.68;;;24.10;98.90;;;;;;6012391;29;88106;-65
2023/05/23 13:47:27;;;;;;;8.45;7.75;;;24.10;99.20;;;;;;6007757;29;89107;-67
2023/05/23 13:50:29;;;;;;;9.70;8.63;;;24.10;99.20;;;;;;6032271;29;89044;-68
2023/05/23 13:53:31;;;;;;;8.75;7.95;;;24.10;99.90;;;;;;6015253;29;90103;-67
2023/05/23 13:56:33;;;;;;;10.75;8.80;;;24.10;99.90;;;;;;6013348;29;88765;-68
2023/05/23 13:59:36;;;;;;;9.30;8.25;;;24.10;99.90;;;;;;6002229;29;89099;-68
2023/05/23 14:02:38;;;;;;;9.65;8.65;;;24.10;99.60;;;;;;6004512;29;88076;-67
2023/05/23 14:05:41;;;;;;;9.35;8.45;;;24.10;99.30;;;;;;5996497;29;88985;-66
2023/05/23 14:08:42;;;;;;;9.45;8.65;;;24.10;99.10;;;;;;6009887;29;88969;-68
2023/05/23 14:11:45;;;;;;;8.23;7.50;;;24.10;98.60;;;;;;6015859;29;89011;-67
2023/05/23 14:14:48;;;;;;;8.23;7.45;;;24.10;98.20;;;;;;6012890;29;88255;-68
2023/05/23 14:17:54;;;;;;;8.82;8.02;;;24.20;98.10;;;;;;5996774;29;87985;-68
2023/05/23 14:20:56;;;;;;;9.10;8.30;;;24.20;98.20;;;;;;6014213;29;90098;-68
2023/05/23 14:23:58;;;;;;;8.75;8.05;;;24.20;98.20;;;;;;6005048;29;89933;-68
2023/05/23 14:27:01;;;;;;;9.45;8.65;;;24.20;98.60;;;;;;5999962;29;89139;-68
2023/05/23 14:30:05;;;;;;;10.55;9.45;;;24.20;99.40;;;;;;6005058;29;89487;-68
2023/05/23 14:33:07;;;;;;;11.00;9.88;;;24.30;99.90;;;;;;6014382;29;89129;-68
2023/05/23 14:36:10;;;;;;;10.82;9.85;;;24.30;99.90;;;;;;5995549;29;88004;-68
2023/05/23 14:39:12;;;;;;;11.73;10.52;;;24.30;99.90;;;;;;6001930;29;89299;-68
2023/05/23 14:42:14;;;;;;;12.98;11.73;;;24.30;99.90;;;;;;5996608;29;90894;-67
2023/05/23 14:45:17;;;;;;;12.93;11.65;;;24.40;99.90;;;;;;6013674;29;88526;-67
2023/05/23 14:48:19;;;;;;;13.77;12.45;;;24.40;99.90;;;;;;6003374;29;89079;-68
2023/05/23 14:51:21;;;;;;;13.88;12.63;;;24.40;99.90;;;;;;6008004;29;89104;-67
2023/05/23 14:54:23;;;;;;;15.73;12.85;;;24.40;99.90;;;;;;6005641;29;90059;-69
2023/05/23 14:57:25;;;;;;;15.07;13.63;;;24.40;99.90;;;;;;6006509;29;89172;-69
2023/05/23 15:00:28;;;;;;;13.15;11.93;;;24.50;99.90;;;;;;6011987;29;89009;-68
2023/05/23 15:03:31;;;;;;;13.23;12.00;;;24.50;99.90;;;;;;6016400;29;89462;-69
2023/05/23 15:06:33;;;;;;;13.52;12.23;;;24.50;99.90;;;;;;6000116;29;89455;-68
2023/05/23 15:09:35;;;;;;;13.50;12.20;;;24.60;99.90;;;;;;6013995;29;89214;-68
2023/05/23 15:12:37;;;;;;;13.02;11.82;;;24.70;99.90;;;;;;6002403;29;88047;-68
2023/05/23 15:15:41;;;;;;;11.38;10.20;;;24.80;99.90;;;;;;6012846;29;88403;-67
2023/05/23 15:18:43;;;;;;;10.73;9.82;;;24.90;99.90;;;;;;6008470;29;89259;-68
2023/05/23 15:21:45;;;;;;;11.18;10.07;;;24.90;99.90;;;;;;6010398;29;89017;-68
2023/05/23 15:24:47;;;;;;;10.65;9.75;;;24.90;99.90;;;;;;5996012;29;90037;-67
2023/05/23 15:27:49;;;;;;;10.32;9.32;;;24.90;99.90;;;;;;5998079;29;89147;-68
2023/05/23 15:30:53;;;;;;;10.63;9.63;;;24.90;99.90;;;;;;6004374;29;89107;-67
2023/05/23 15:33:55;;;;;;;11.65;9.38;;;24.90;99.90;;;;;;6004057;29;89110;-68
2023/05/23 15:36:57;;;;;;;11.32;9.85;;;24.90;99.90;;;;;;5998551;29;89489;-68
2023/05/23 15:39:59;;;;;;;9.18;8.38;;;24.90;99.90;;;;;;6012615;29;89081;-68
2023/05/23 15:43:01;;;;;;;9.23;8.23;;;25.10;99.90;;;;;;5999637;29;89041;-68
2023/05/23 15:46:04;;;;;;;9.75;7.80;;;25.60;98.70;;;;;;6009135;29;88433;-67